Time;durP1;ratioP1;P1;durP2;ratioP2;P2;SDS_P1;SDS_P2;PMS_P1;PMS_P2;Temp;Humidity;BMP_temperature;BMP_pressure;BME280_temperature;BME280_humidity;BME280_pressure;Samples;Min_cycle;Max_cycle;Signal;HPM_P1;HPM_P2
2021/01/06 00:00:25;;;;;;;67.35;24.38;;;;;;;-1.79;100.00;95388.53;1039968;28;20461;-72
2021/01/06 00:00:56;;;;;;;70.43;24.98;;;;;;;-1.75;100.00;95393.38;1036062;28;20032;-73
2021/01/06 00:01:27;;;;;;;64.97;24.05;;;;;;;-1.79;100.00;95391.16;1035941;28;20022;-72
2021/01/06 00:01:57;;;;;;;73.10;24.65;;;;;;;-1.78;100.00;95391.00;1040079;28;20022;-73
2021/01/06 00:02:28;;;;;;;65.18;24.83;;;;;;;-1.79;100.00;95389.38;1031759;28;20161;-73
2021/01/06 00:02:59;;;;;;;69.88;26.00;;;;;;;-1.80;100.00;95381.69;1027846;28;20027;-72
2021/01/06 00:03:29;;;;;;;69.95;25.25;;;;;;;-1.79;100.00;95385.94;1036015;28;20164;-72
2021/01/06 00:04:00;;;;;;;68.18;23.42;;;;;;;-1.86;100.00;95393.38;1028014;28;20106;-73
2021/01/06 00:04:31;;;;;;;60.28;22.73;;;;;;;-1.87;100.00;95391.69;1031880;28;20027;-72
2021/01/06 00:05:03;;;;;;;69.40;25.83;;;;;;;-1.78;100.00;95387.59;1031949;28;20025;-73
2021/01/06 00:05:34;;;;;;;67.82;24.35;;;;;;;-1.76;100.00;95389.16;1024060;29;20027;-73
2021/01/06 00:06:08;;;;;;;64.60;24.92;;;;;;;-1.88;100.00;95387.47;1031933;28;20117;-72
2021/01/06 00:06:39;;;;;;;70.00;25.45;;;;;;;-1.79;100.00;95384.16;1031854;28;20076;-72
2021/01/06 00:07:10;;;;;;;64.13;24.30;;;;;;;-1.69;100.00;95383.47;1023888;29;20672;-72
2021/01/06 00:07:42;;;;;;;64.53;24.25;;;;;;;-1.74;100.00;95381.22;1031944;28;20583;-73
2021/01/06 00:08:13;;;;;;;67.22;24.88;;;;;;;-1.80;100.00;95372.09;1023902;28;20019;-73
2021/01/06 00:08:44;;;;;;;68.38;24.17;;;;;;;-1.74;100.00;95387.25;1031886;28;20018;-72
2021/01/06 00:09:15;;;;;;;68.57;24.50;;;;;;;-1.68;100.00;95375.53;1032027;28;20398;-72
2021/01/06 00:09:46;;;;;;;68.25;24.70;;;;;;;-1.66;100.00;95391.06;1032096;28;20029;-73
2021/01/06 00:10:20;;;;;;;65.32;22.50;;;;;;;-1.60;100.00;95387.97;1036099;28;20026;-73
2021/01/06 00:10:54;;;;;;;70.90;23.70;;;;;;;-1.72;100.00;95380.16;1035921;28;20498;-72
2021/01/06 00:11:34;;;;;;;65.15;23.60;;;;;;;-1.90;100.00;95345.09;1027958;28;20026;-73
2021/01/06 00:12:07;;;;;;;63.38;23.67;;;;;;;-1.68;100.00;95379.94;1036054;28;20405;-72
2021/01/06 00:12:40;;;;;;;67.80;24.25;;;;;;;-1.51;100.00;95395.13;1031802;28;20273;-72
2021/01/06 00:13:11;;;;;;;68.88;24.42;;;;;;;-1.63;100.00;95398.63;1032038;28;20026;-72
2021/01/06 00:13:42;;;;;;;61.50;23.00;;;;;;;-1.58;100.00;95393.91;1027869;28;20398;-73
2021/01/06 00:14:14;;;;;;;64.43;23.92;;;;;;;-1.56;100.00;95398.06;1040053;28;20087;-73
2021/01/06 00:14:45;;;;;;;67.13;24.73;;;;;;;-1.48;100.00;95396.63;1044160;28;20029;-73
2021/01/06 00:15:17;;;;;;;65.32;22.52;;;;;;;-1.46;100.00;95395.59;1031849;28;20061;-73
2021/01/06 00:15:47;;;;;;;67.10;25.25;;;;;;;-1.60;100.00;95396.63;1031940;28;20368;-73
2021/01/06 00:16:18;;;;;;;65.72;25.67;;;;;;;-1.52;100.00;95396.03;1040075;28;20022;-72
2021/01/06 00:16:52;;;;;;;69.95;26.50;;;;;;;-1.66;100.00;95398.88;1035833;28;20123;-73
2021/01/06 00:17:22;;;;;;;69.85;24.48;;;;;;;-1.64;100.00;95394.38;1027860;28;20014;-73
2021/01/06 00:17:53;;;;;;;70.03;25.52;;;;;;;-1.72;100.00;95385.34;1040011;28;20049;-73
2021/01/06 00:18:25;;;;;;;69.40;27.42;;;;;;;-1.64;100.00;95389.97;1040005;28;20022;-73
2021/01/06 00:18:55;;;;;;;70.47;25.30;;;;;;;-1.56;100.00;95394.63;1031543;28;20026;-73
2021/01/06 00:19:26;;;;;;;70.20;23.85;;;;;;;-1.55;100.00;95393.66;1031782;28;20026;-72
2021/01/06 00:19:57;;;;;;;68.32;24.90;;;;;;;-1.57;100.00;95392.94;1040109;28;20152;-72
2021/01/06 00:20:29;;;;;;;70.10;23.90;;;;;;;-1.65;100.00;95390.94;1040037;28;20049;-73
2021/01/06 00:20:59;;;;;;;77.25;26.52;;;;;;;-1.71;100.00;95381.81;1036020;28;20413;-73
2021/01/06 00:21:30;;;;;;;69.53;25.85;;;;;;;-1.88;100.00;95363.19;1035835;28;20021;-73
2021/01/06 00:22:01;;;;;;;69.45;25.15;;;;;;;-1.76;100.00;95381.34;1040083;28;20024;-73
2021/01/06 00:22:32;;;;;;;74.18;26.00;;;;;;;-1.77;100.00;95369.25;1031831;28;20045;-73
2021/01/06 00:23:03;;;;;;;78.40;25.95;;;;;;;-1.67;100.00;95387.63;1027836;28;20494;-73
2021/01/06 00:23:33;;;;;;;75.28;25.92;;;;;;;-1.74;100.00;95395.06;1035849;28;20029;-73
2021/01/06 00:24:05;;;;;;;68.72;24.05;;;;;;;-1.86;100.00;95388.16;1036170;28;20089;-72
2021/01/06 00:24:36;;;;;;;80.55;26.52;;;;;;;-1.80;100.00;95394.69;1027928;28;20029;-72
2021/01/06 00:25:07;;;;;;;68.25;24.98;;;;;;;-1.76;100.00;95393.50;1039843;28;20040;-73
2021/01/06 00:25:41;;;;;;;72.32;24.58;;;;;;;-1.80;100.00;95392.91;1035919;28;20014;-73
2021/01/06 00:26:12;;;;;;;72.32;24.45;;;;;;;-1.82;100.00;95388.78;1027927;28;20106;-73
2021/01/06 00:26:43;;;;;;;74.20;26.40;;;;;;;-1.71;100.00;95391.38;1031857;28;20019;-73
2021/01/06 00:27:13;;;;;;;81.15;27.70;;;;;;;-1.76;100.00;95389.16;1035941;28;20013;-73
2021/01/06 00:27:44;;;;;;;78.13;26.42;;;;;;;-1.66;100.00;95393.66;1027968;28;20022;-73
2021/01/06 00:28:17;;;;;;;71.32;25.30;;;;;;;-1.62;100.00;95384.66;1027927;28;20109;-73
2021/01/06 00:28:47;;;;;;;71.60;25.13;;;;;;;-1.59;100.00;95382.66;1036158;28;20125;-73
2021/01/06 00:29:18;;;;;;;77.65;27.30;;;;;;;-1.47;100.00;95388.72;1035948;28;20397;-72
2021/01/06 00:29:49;;;;;;;69.68;25.55;;;;;;;-1.49;100.00;95395.81;1035852;28;20030;-73
2021/01/06 00:30:31;;;;;;;69.10;24.90;;;;;;;-1.57;100.00;95387.75;1035991;28;20490;-72
2021/01/06 00:31:02;;;;;;;77.10;24.88;;;;;;;-1.60;100.00;95388.81;1039999;28;20489;-73
2021/01/06 00:31:40;;;;;;;72.30;26.02;;;;;;;-1.56;100.00;95386.81;1035872;28;20024;-73
2021/01/06 00:32:12;;;;;;;74.25;23.88;;;;;;;-1.58;100.00;95389.53;1035935;28;20013;-72
2021/01/06 00:32:42;;;;;;;73.10;24.30;;;;;;;-1.56;100.00;95389.41;1032013;28;20014;-72
2021/01/06 00:33:18;;;;;;;65.22;24.70;;;;;;;-1.58;100.00;95391.31;1031829;28;20555;-73
2021/01/06 00:33:49;;;;;;;73.05;25.13;;;;;;;-1.54;100.00;95388.34;1031769;28;20093;-73
2021/01/06 00:34:19;;;;;;;69.55;26.35;;;;;;;-1.63;100.00;95385.63;1044084;28;20013;-73
2021/01/06 00:34:50;;;;;;;79.30;25.75;;;;;;;-1.58;100.00;95388.72;1035832;28;20057;-73
2021/01/06 00:35:22;;;;;;;70.03;24.45;;;;;;;-1.54;100.00;95385.75;1035845;28;20164;-73
2021/01/06 00:35:54;;;;;;;69.22;24.65;;;;;;;-1.55;100.00;95391.06;1035813;28;20049;-73
2021/01/06 00:36:27;;;;;;;68.47;24.70;;;;;;;-1.54;100.00;95388.34;1031800;28;20066;-73
2021/01/06 00:36:57;;;;;;;65.80;25.05;;;;;;;-1.60;100.00;95378.41;1035859;28;20108;-73
2021/01/06 00:37:28;;;;;;;64.10;24.95;;;;;;;-1.64;100.00;95387.38;1031831;28;20289;-73
2021/01/06 00:37:59;;;;;;;71.10;26.00;;;;;;;-1.64;100.00;95382.16;1035723;28;20017;-73
2021/01/06 00:38:30;;;;;;;72.57;25.30;;;;;;;-1.75;100.00;95385.59;1027861;28;20011;-73
2021/01/06 00:39:01;;;;;;;74.07;25.17;;;;;;;-1.73;100.00;95386.28;1035885;28;20014;-72
2021/01/06 00:39:32;;;;;;;78.82;25.30;;;;;;;-1.68;100.00;95378.16;1035919;28;20052;-73
2021/01/06 00:40:04;;;;;;;65.68;24.23;;;;;;;-1.65;100.00;95382.31;1031745;28;20344;-73
2021/01/06 00:40:35;;;;;;;92.40;27.83;;;;;;;-1.83;100.00;95377.53;1023840;29;20022;-73
2021/01/06 00:41:06;;;;;;;78.95;26.50;;;;;;;-1.68;100.00;95388.56;1031904;28;20026;-73
2021/01/06 00:41:37;;;;;;;73.80;24.85;;;;;;;-1.77;100.00;95387.47;1031877;28;20015;-72
2021/01/06 00:42:08;;;;;;;72.93;26.17;;;;;;;-1.81;100.00;95385.22;1039869;28;20095;-73
2021/01/06 00:42:38;;;;;;;75.32;27.15;;;;;;;-1.82;100.00;95383.56;1031873;28;20014;-73
2021/01/06 00:43:09;;;;;;;81.88;26.48;;;;;;;-1.73;100.00;95382.88;1031807;28;20010;-73
2021/01/06 00:43:40;;;;;;;76.03;26.42;;;;;;;-1.74;100.00;95383.84;1023681;29;20023;-73
2021/01/06 00:44:11;;;;;;;77.75;26.15;;;;;;;-1.77;100.00;95387.47;1039741;28;20211;-73
2021/01/06 00:44:41;;;;;;;78.45;28.05;;;;;;;-1.92;100.00;95352.19;1031807;28;20076;-73
2021/01/06 00:45:15;;;;;;;75.82;25.42;;;;;;;-1.62;100.00;95384.66;1027786;28;20463;-72
2021/01/06 00:45:45;;;;;;;73.22;25.80;;;;;;;-1.58;100.00;95386.94;1040881;28;20021;-73
2021/01/06 00:46:16;;;;;;;74.60;24.55;;;;;;;-1.53;100.00;95378.78;1033588;28;20274;-72
2021/01/06 00:46:47;;;;;;;71.07;24.25;;;;;;;-1.61;100.00;95383.72;1037451;28;20014;-72
2021/01/06 00:47:17;;;;;;;74.53;26.60;;;;;;;-1.63;100.00;95372.59;1037831;28;20451;-72
2021/01/06 00:47:49;;;;;;;71.60;25.40;;;;;;;-1.55;100.00;95385.84;1029702;28;20113;-72
2021/01/06 00:48:20;;;;;;;69.75;24.95;;;;;;;-1.59;100.00;95371.41;1034150;28;20053;-73
2021/01/06 00:48:50;;;;;;;70.80;26.98;;;;;;;-1.49;100.00;95385.41;1037849;28;20507;-72
2021/01/06 00:49:21;;;;;;;66.05;24.48;;;;;;;-1.58;100.00;95381.72;1030401;28;20021;-73
2021/01/06 00:49:52;;;;;;;73.28;25.30;;;;;;;-1.55;100.00;95384.09;1026295;29;20030;-73
2021/01/06 00:50:25;;;;;;;75.15;26.38;;;;;;;-1.45;100.00;95386.00;1034380;28;20545;-73
2021/01/06 00:50:56;;;;;;;75.10;26.92;;;;;;;-1.44;100.00;95382.47;1030439;28;20042;-73
2021/01/06 00:51:27;;;;;;;72.72;25.55;;;;;;;-1.45;100.00;95386.81;1038453;28;20022;-73
2021/01/06 00:51:58;;;;;;;82.22;27.45;;;;;;;-1.49;100.00;95388.00;1034039;28;20097;-72
2021/01/06 00:52:28;;;;;;;70.32;25.80;;;;;;;-1.59;100.00;95390.47;1030286;28;20488;-72
2021/01/06 00:53:02;;;;;;;73.80;26.50;;;;;;;-1.65;100.00;95384.91;1034364;28;20019;-73
2021/01/06 00:53:32;;;;;;;70.35;24.67;;;;;;;-1.56;100.00;95384.22;1034611;28;20015;-73
2021/01/06 00:54:04;;;;;;;65.38;26.23;;;;;;;-1.64;100.00;95371.75;1038449;28;20051;-73
2021/01/06 00:54:36;;;;;;;69.22;23.38;;;;;;;-1.47;100.00;95391.31;1037970;28;20025;-73
2021/01/06 00:55:08;;;;;;;72.65;25.15;;;;;;;-1.40;100.00;95386.47;1034157;28;20014;-73
2021/01/06 00:55:38;;;;;;;72.10;23.90;;;;;;;-1.37;100.00;95387.06;1026266;29;20055;-73
2021/01/06 00:56:09;;;;;;;68.15;24.55;;;;;;;-1.35;100.00;95395.59;1038367;28;20025;-73
2021/01/06 00:56:40;;;;;;;74.35;25.52;;;;;;;-1.37;100.00;95386.25;1029973;28;20409;-73
2021/01/06 00:57:11;;;;;;;72.50;25.63;;;;;;;-1.49;100.00;95385.41;1042398;28;20108;-73
2021/01/06 00:57:42;;;;;;;73.15;26.08;;;;;;;-1.47;100.00;95387.91;1034486;28;20014;-72
2021/01/06 00:58:12;;;;;;;69.50;26.20;;;;;;;-1.49;100.00;95380.19;1029816;28;20128;-73
2021/01/06 00:58:43;;;;;;;74.07;25.88;;;;;;;-1.41;100.00;95388.25;1040481;28;20032;-72
2021/01/06 00:59:15;;;;;;;65.20;24.75;;;;;;;-1.37;100.00;95389.69;1028827;28;20109;-72
2021/01/06 00:59:46;;;;;;;64.97;23.88;;;;;;;-1.31;100.00;95388.38;1024846;29;20031;-72
2021/01/06 01:00:19;;;;;;;65.43;24.30;;;;;;;-1.43;100.00;95369.31;1036500;28;20017;-72
2021/01/06 01:00:50;;;;;;;79.10;27.45;;;;;;;-1.39;100.00;95390.75;1032496;28;20018;-72
2021/01/06 01:01:21;;;;;;;74.65;26.65;;;;;;;-1.47;100.00;95373.09;1032052;28;20019;-72
2021/01/06 01:01:52;;;;;;;74.93;25.10;;;;;;;-1.55;100.00;95391.91;1032005;28;20026;-73
2021/01/06 01:02:23;;;;;;;75.55;25.70;;;;;;;-1.56;100.00;95392.03;1023785;29;20043;-73
2021/01/06 01:02:53;;;;;;;74.00;26.20;;;;;;;-1.46;100.00;95395.59;1032836;28;20499;-72
2021/01/06 01:03:24;;;;;;;72.20;25.40;;;;;;;-1.46;100.00;95390.38;1036733;28;20393;-71
2021/01/06 01:03:56;;;;;;;76.47;26.23;;;;;;;-1.64;100.00;95376.16;1027988;28;20023;-72
2021/01/06 01:04:28;;;;;;;77.07;27.10;;;;;;;-1.58;100.00;95396.53;1035848;28;20010;-73
2021/01/06 01:04:58;;;;;;;64.00;25.27;;;;;;;-1.61;100.00;95388.94;1031628;28;20053;-73
2021/01/06 01:05:31;;;;;;;73.47;26.73;;;;;;;-1.65;100.00;95390.94;1031740;28;20026;-72
2021/01/06 01:06:02;;;;;;;71.47;24.63;;;;;;;-1.66;100.00;95384.06;1031779;28;20037;-73
2021/01/06 01:06:33;;;;;;;76.70;26.80;;;;;;;-1.66;100.00;95393.66;1031795;28;20475;-72
2021/01/06 01:07:04;;;;;;;72.45;25.55;;;;;;;-1.61;100.00;95386.34;1031880;28;20026;-73
2021/01/06 01:07:40;;;;;;;76.30;26.42;;;;;;;-1.77;100.00;95374.47;1027870;28;20388;-73
2021/01/06 01:08:11;;;;;;;77.57;25.00;;;;;;;-1.55;100.00;95386.72;1031811;28;20120;-73
2021/01/06 01:08:42;;;;;;;74.47;25.60;;;;;;;-1.60;100.00;95382.75;1028093;28;20015;-73
2021/01/06 01:09:13;;;;;;;71.63;26.23;;;;;;;-1.62;100.00;95390.72;1027825;28;20030;-72
2021/01/06 01:09:44;;;;;;;72.75;24.83;;;;;;;-1.60;100.00;95390.56;1035989;28;20384;-72
2021/01/06 01:10:48;;;;;;;71.68;25.48;;;;;;;-1.48;100.00;95379.25;1027935;28;20395;-73
2021/01/06 01:11:21;;;;;;;70.43;23.80;;;;;;;-1.58;100.00;95389.53;1034936;28;20160;-72
2021/01/06 01:11:53;;;;;;;69.88;23.67;;;;;;;-1.61;100.00;95387.16;1044930;28;20267;-72
2021/01/06 01:12:24;;;;;;;72.70;23.75;;;;;;;-1.61;100.00;95389.75;1039934;28;20253;-73
2021/01/06 01:12:55;;;;;;;72.45;24.20;;;;;;;-1.50;100.00;95388.13;1031894;28;20093;-73
2021/01/06 01:13:26;;;;;;;70.28;24.17;;;;;;;-1.45;100.00;95384.22;1031806;28;20053;-72
2021/01/06 01:13:56;;;;;;;67.65;24.25;;;;;;;-1.46;100.00;95390.38;1031780;28;20025;-73
2021/01/06 01:14:27;;;;;;;67.45;24.50;;;;;;;-1.43;100.00;95384.94;1031772;28;20022;-73
2021/01/06 01:14:58;;;;;;;75.43;25.77;;;;;;;-1.44;100.00;95383.28;1031782;28;20015;-73
2021/01/06 01:15:31;;;;;;;65.53;24.02;;;;;;;-1.41;100.00;95387.41;1031722;28;20061;-73
2021/01/06 01:16:01;;;;;;;64.85;23.17;;;;;;;-1.44;100.00;95388.50;1023857;28;20501;-73
2021/01/06 01:16:32;;;;;;;72.63;24.10;;;;;;;-1.40;100.00;95389.91;1035791;28;20037;-72
2021/01/06 01:17:03;;;;;;;78.32;26.45;;;;;;;-1.47;100.00;95386.13;1039816;28;20502;-73
2021/01/06 01:17:34;;;;;;;67.72;25.50;;;;;;;-1.47;100.00;95388.72;1035683;28;20089;-73
2021/01/06 01:18:05;;;;;;;63.72;23.75;;;;;;;-1.49;100.00;95385.41;1031790;28;20073;-72
2021/01/06 01:18:36;;;;;;;74.55;26.33;;;;;;;-1.48;100.00;95384.47;1027745;28;20061;-73
2021/01/06 01:19:10;;;;;;;63.88;23.25;;;;;;;-1.43;100.00;95384.94;1035941;28;20406;-72
2021/01/06 01:19:41;;;;;;;63.83;23.27;;;;;;;-1.38;100.00;95382.81;1023640;28;20524;-72
2021/01/06 01:20:12;;;;;;;63.72;23.23;;;;;;;-1.58;100.00;95353.09;1039808;28;20026;-72
2021/01/06 01:20:44;;;;;;;68.35;23.90;;;;;;;-1.39;100.00;95383.75;1031694;28;20038;-73
2021/01/06 01:21:18;;;;;;;71.50;23.70;;;;;;;-1.41;100.00;95388.25;1031799;28;20049;-72
2021/01/06 01:21:49;;;;;;;68.43;24.17;;;;;;;-1.51;100.00;95363.88;1039738;28;20047;-72
2021/01/06 01:22:20;;;;;;;71.63;25.20;;;;;;;-1.48;100.00;95381.88;1027800;28;20065;-73
2021/01/06 01:22:54;;;;;;;69.47;24.13;;;;;;;-1.39;100.00;95385.53;1039915;28;20021;-72
2021/01/06 01:23:27;;;;;;;70.32;26.15;;;;;;;-1.45;100.00;95381.59;1027805;28;20023;-72
2021/01/06 01:23:57;;;;;;;68.10;24.40;;;;;;;-1.46;100.00;95381.72;1027602;28;20102;-73
2021/01/06 01:24:28;;;;;;;72.53;25.88;;;;;;;-1.64;100.00;95386.56;1031778;28;20466;-73
2021/01/06 01:24:59;;;;;;;73.15;25.95;;;;;;;-1.65;100.00;95375.31;1031652;28;20042;-72
2021/01/06 01:25:29;;;;;;;73.85;26.33;;;;;;;-1.67;100.00;95387.63;1035933;28;20014;-72
2021/01/06 01:26:01;;;;;;;76.05;26.88;;;;;;;-1.68;100.00;95382.53;1035758;28;20216;-73
2021/01/06 01:26:32;;;;;;;80.07;26.85;;;;;;;-1.76;100.00;95368.31;1035727;28;20096;-73
2021/01/06 01:27:04;;;;;;;73.75;25.15;;;;;;;-1.73;100.00;95390.69;1039904;28;20072;-72
2021/01/06 01:27:35;;;;;;;76.05;26.60;;;;;;;-1.77;100.00;95379.66;1027755;28;20026;-73
2021/01/06 01:28:05;;;;;;;76.38;27.27;;;;;;;-1.76;100.00;95376.13;1031637;28;20028;-72
2021/01/06 01:28:36;;;;;;;77.68;26.65;;;;;;;-1.72;100.00;95374.94;1035843;28;20104;-73
2021/01/06 01:29:07;;;;;;;76.30;27.02;;;;;;;-1.65;100.00;95384.91;1039893;28;20029;-73
2021/01/06 01:29:38;;;;;;;78.93;26.85;;;;;;;-1.66;100.00;95380.63;1031687;28;20113;-73
2021/01/06 01:30:14;;;;;;;72.22;25.02;;;;;;;-1.64;100.00;95383.94;1031729;28;20034;-73
2021/01/06 01:30:45;;;;;;;70.05;25.27;;;;;;;-1.55;100.00;95384.09;1023690;29;20024;-73
2021/01/06 01:31:16;;;;;;;69.35;24.90;;;;;;;-1.58;100.00;95380.91;1032533;28;20033;-73
2021/01/06 01:31:47;;;;;;;69.18;22.52;;;;;;;-1.56;100.00;95377.22;1040689;28;20021;-73
2021/01/06 01:32:18;;;;;;;66.75;24.70;;;;;;;-1.58;100.00;95376.50;1036517;28;20030;-73
2021/01/06 01:32:49;;;;;;;71.82;26.40;;;;;;;-1.63;100.00;95380.41;1028626;28;20035;-73
2021/01/06 01:33:22;;;;;;;68.68;23.90;;;;;;;-1.61;100.00;95378.53;1032636;28;20061;-73
2021/01/06 01:33:52;;;;;;;72.05;24.80;;;;;;;-1.72;100.00;95359.34;1036619;28;20024;-72
2021/01/06 01:34:23;;;;;;;68.97;24.65;;;;;;;-1.61;100.00;95381.94;1040582;28;20021;-72
2021/01/06 01:34:54;;;;;;;72.25;24.48;;;;;;;-1.60;100.00;95382.75;1028589;28;20365;-72
2021/01/06 01:35:27;;;;;;;73.82;26.10;;;;;;;-1.64;100.00;95374.34;1032488;28;20030;-73
2021/01/06 01:35:58;;;;;;;64.47;24.85;;;;;;;-1.61;100.00;95378.53;1032456;28;20151;-73
2021/01/06 01:36:29;;;;;;;71.20;26.58;;;;;;;-1.65;100.00;95377.09;1040673;28;20029;-72
2021/01/06 01:37:00;;;;;;;77.93;25.65;;;;;;;-1.76;100.00;95378.75;1036446;28;20021;-72
2021/01/06 01:37:31;;;;;;;70.95;25.13;;;;;;;-1.67;100.00;95381.56;1040656;28;20026;-72
2021/01/06 01:38:04;;;;;;;76.63;25.70;;;;;;;-1.62;100.00;95375.09;1040596;28;20494;-73
2021/01/06 01:38:35;;;;;;;72.50;25.77;;;;;;;-1.62;100.00;95384.66;1028380;28;20033;-73
2021/01/06 01:39:06;;;;;;;72.07;24.52;;;;;;;-1.71;100.00;95379.22;1036577;28;20048;-73
2021/01/06 01:39:37;;;;;;;74.60;26.23;;;;;;;-1.62;100.00;95372.50;1036515;28;20080;-72
2021/01/06 01:40:09;;;;;;;71.82;25.42;;;;;;;-1.71;100.00;95375.78;1032508;28;20399;-72
2021/01/06 01:40:40;;;;;;;83.53;27.27;;;;;;;-1.71;100.00;95379.22;1032387;28;20053;-73
2021/01/06 01:41:12;;;;;;;75.60;27.02;;;;;;;-1.65;100.00;95364.91;1040794;28;20402;-73
2021/01/06 01:41:43;;;;;;;73.43;26.02;;;;;;;-1.59;100.00;95380.06;1044725;28;20475;-73
2021/01/06 01:42:16;;;;;;;78.78;25.60;;;;;;;-1.66;100.00;95378.84;1036490;28;20088;-73
2021/01/06 01:42:51;;;;;;;84.97;27.33;;;;;;;-1.64;100.00;95381.34;1032421;28;20101;-73
2021/01/06 01:43:22;;;;;;;77.30;25.98;;;;;;;-1.72;100.00;95356.72;1032454;28;20069;-73
2021/01/06 01:43:53;;;;;;;79.65;27.00;;;;;;;-1.63;100.00;95370.81;1032462;28;20049;-72
2021/01/06 01:44:24;;;;;;;79.47;26.30;;;;;;;-1.66;100.00;95378.03;1040551;28;20421;-73
2021/01/06 01:45:04;;;;;;;82.47;26.27;;;;;;;-1.68;100.00;95374.72;1032457;28;20038;-72
2021/01/06 01:45:46;;;;;;;72.28;26.23;;;;;;;-1.66;100.00;95375.44;1036492;28;20077;-73
2021/01/06 01:46:20;;;;;;;67.35;25.67;;;;;;;-1.57;100.00;95377.34;1036550;28;20340;-72
2021/01/06 01:47:00;;;;;;;79.13;25.80;;;;;;;-1.54;100.00;95375.31;1032577;28;20097;-72
2021/01/06 01:47:39;;;;;;;81.18;26.55;;;;;;;-1.68;100.00;95369.53;1032474;28;20289;-72
2021/01/06 01:48:23;;;;;;;75.32;25.67;;;;;;;-1.71;100.00;95352.34;1028577;28;20150;-73
2021/01/06 01:48:54;;;;;;;78.68;26.35;;;;;;;-1.71;100.00;95375.78;1036562;28;20030;-72
2021/01/06 01:49:27;;;;;;;77.88;25.58;;;;;;;-1.71;100.00;95380.97;1036407;28;20809;-72
2021/01/06 01:49:58;;;;;;;83.82;26.77;;;;;;;-1.69;100.00;95378.25;1032615;28;20030;-73
2021/01/06 01:50:29;;;;;;;84.47;26.75;;;;;;;-1.73;100.00;95378.47;1036418;28;20026;-72
2021/01/06 01:51:06;;;;;;;82.93;26.92;;;;;;;-1.75;100.00;95380.38;1036408;28;20022;-73
2021/01/06 01:51:40;;;;;;;85.07;26.98;;;;;;;-1.75;100.00;95371.75;1032455;28;20064;-72
2021/01/06 01:52:25;;;;;;;76.45;25.45;;;;;;;-1.65;100.00;95380.53;1032372;28;20443;-72
2021/01/06 01:53:00;;;;;;;74.45;25.65;;;;;;;-1.68;100.00;95372.13;1028367;28;20023;-73
2021/01/06 01:53:41;;;;;;;77.47;26.55;;;;;;;-1.63;100.00;95380.41;1028470;28;20258;-73
2021/01/06 01:54:13;;;;;;;79.13;25.85;;;;;;;-1.67;100.00;95368.56;1032529;28;20300;-73
2021/01/06 01:54:44;;;;;;;76.97;24.80;;;;;;;-1.75;100.00;95380.38;1032386;28;20257;-72
2021/01/06 01:55:15;;;;;;;72.82;25.48;;;;;;;-1.78;100.00;95364.97;1032318;28;20478;-72
2021/01/06 01:55:46;;;;;;;76.35;24.95;;;;;;;-1.62;100.00;95382.91;1028408;28;20023;-73
2021/01/06 01:56:17;;;;;;;75.32;26.23;;;;;;;-1.57;100.00;95379.94;1036450;28;20021;-73
2021/01/06 01:56:59;;;;;;;80.05;26.08;;;;;;;-1.66;100.00;95383.25;1040378;28;20120;-72
2021/01/06 01:57:32;;;;;;;79.53;26.25;;;;;;;-1.69;100.00;95389.50;1040578;28;20080;-72
2021/01/06 01:58:07;;;;;;;77.18;25.02;;;;;;;-1.73;100.00;95381.09;1040542;28;20279;-72
2021/01/06 01:58:40;;;;;;;75.45;26.45;;;;;;;-1.66;100.00;95385.84;1032538;28;20105;-72
2021/01/06 01:59:16;;;;;;;80.95;27.50;;;;;;;-1.65;100.00;95380.53;1032369;28;20370;-72
2021/01/06 01:59:58;;;;;;;73.78;26.13;;;;;;;-1.60;100.00;95372.34;1036598;28;20668;-73
2021/01/06 02:00:30;;;;;;;77.97;26.58;;;;;;;-1.57;100.00;95377.34;1036512;28;20072;-73
2021/01/06 02:01:01;;;;;;;84.10;27.85;;;;;;;-1.60;100.00;95383.63;1028409;28;20450;-72
2021/01/06 02:01:32;;;;;;;77.13;26.58;;;;;;;-1.82;100.00;95352.34;1040556;28;20539;-73
2021/01/06 02:02:06;;;;;;;83.70;28.48;;;;;;;-1.66;100.00;95378.84;1032500;28;20037;-73
2021/01/06 02:02:47;;;;;;;78.80;26.67;;;;;;;-1.66;100.00;95378.84;1032408;28;20038;-73
2021/01/06 02:03:21;;;;;;;72.15;25.73;;;;;;;-1.86;100.00;95362.16;1036245;28;20457;-72
2021/01/06 02:03:57;;;;;;;80.45;26.73;;;;;;;-1.77;100.00;95377.06;1032475;28;20257;-73
2021/01/06 02:04:42;;;;;;;84.97;27.33;;;;;;;-1.68;100.00;95366.91;1028506;28;20061;-72
2021/01/06 02:05:16;;;;;;;80.38;27.52;;;;;;;-1.67;100.00;95376.38;1032342;28;20022;-72
2021/01/06 02:06:00;;;;;;;85.13;27.02;;;;;;;-1.66;100.00;95380.63;1032381;28;20160;-72
2021/01/06 02:06:36;;;;;;;76.65;26.35;;;;;;;-1.63;100.00;95383.03;1024431;29;20263;-72
2021/01/06 02:07:18;;;;;;;74.97;25.95;;;;;;;-1.73;100.00;95372.47;1028388;28;20058;-73
2021/01/06 02:08:03;;;;;;;81.82;26.38;;;;;;;-1.64;100.00;95373.53;1028466;28;20015;-73
2021/01/06 02:08:46;;;;;;;82.15;26.33;;;;;;;-1.57;100.00;95372.97;1032322;28;20049;-73
2021/01/06 02:09:21;;;;;;;77.30;27.15;;;;;;;-1.69;100.00;95353.06;1024450;29;20102;-73
2021/01/06 02:10:10;;;;;;;73.95;24.88;;;;;;;-1.60;100.00;95368.00;1032384;28;20081;-72
2021/01/06 02:10:46;;;;;;;73.63;26.17;;;;;;;-1.61;100.00;95368.94;1028402;28;20250;-72
2021/01/06 02:11:21;;;;;;;73.15;25.55;;;;;;;-1.63;100.00;95368.22;1036433;28;20442;-72
2021/01/06 02:12:13;;;;;;;76.05;25.65;;;;;;;-1.65;100.00;95359.72;1032324;28;20033;-73
2021/01/06 02:12:55;;;;;;;72.38;24.85;;;;;;;-1.55;100.00;95370.22;1032375;28;20361;-73
2021/01/06 02:13:33;;;;;;;79.35;26.33;;;;;;;-1.60;100.00;95367.16;1033326;28;20124;-73
2021/01/06 02:14:16;;;;;;;71.43;26.25;;;;;;;-1.53;100.00;95365.75;1036382;28;20265;-73
2021/01/06 02:15:00;;;;;;;77.18;26.67;;;;;;;-1.55;100.00;95357.22;1040662;28;20029;-73
2021/01/06 02:15:49;;;;;;;80.78;26.30;;;;;;;-1.49;100.00;95364.56;1036367;28;20355;-73
2021/01/06 02:16:31;;;;;;;77.32;26.23;;;;;;;-1.55;100.00;95365.03;1032743;28;20022;-72
2021/01/06 02:17:13;;;;;;;71.10;24.92;;;;;;;-1.55;100.00;95365.88;1040640;28;20021;-72
2021/01/06 02:17:44;;;;;;;80.63;25.35;;;;;;;-1.76;100.00;95357.06;1032356;28;20323;-73
2021/01/06 02:18:15;;;;;;;83.30;25.92;;;;;;;-1.77;100.00;95366.66;1036458;28;20084;-72
2021/01/06 02:18:46;;;;;;;82.88;26.33;;;;;;;-1.77;100.00;95353.66;1036433;28;20022;-72
2021/01/06 02:19:19;;;;;;;79.75;27.02;;;;;;;-1.66;100.00;95360.63;1036419;28;20052;-73
2021/01/06 02:19:50;;;;;;;84.70;25.83;;;;;;;-1.71;100.00;95355.81;1024244;29;20115;-73
2021/01/06 02:20:23;;;;;;;74.18;25.73;;;;;;;-1.65;100.00;95359.72;1024306;29;20027;-73
2021/01/06 02:21:00;;;;;;;76.10;25.67;;;;;;;-1.68;100.00;95359.94;1028335;28;20030;-72
2021/01/06 02:21:31;;;;;;;88.18;28.88;;;;;;;-1.71;100.00;95361.00;1040523;28;20052;-72
2021/01/06 02:22:03;;;;;;;81.13;26.80;;;;;;;-1.66;100.00;95352.00;1032294;28;20253;-73
2021/01/06 02:22:34;;;;;;;69.72;26.10;;;;;;;-1.62;100.00;95362.09;1028294;28;20476;-73
2021/01/06 02:23:05;;;;;;;82.88;27.00;;;;;;;-1.76;100.00;95357.06;1032318;28;20030;-72
2021/01/06 02:23:35;;;;;;;73.47;27.63;;;;;;;-1.69;100.00;95352.22;1028373;28;20089;-73
2021/01/06 02:24:07;;;;;;;81.25;27.63;;;;;;;-1.58;100.00;95360.06;1032357;28;20442;-73
2021/01/06 02:24:38;;;;;;;87.07;28.40;;;;;;;-1.62;100.00;95354.28;1028253;28;20022;-73
2021/01/06 02:25:09;;;;;;;79.00;28.15;;;;;;;-1.59;100.00;95353.19;1040501;28;20462;-73
2021/01/06 02:25:40;;;;;;;80.28;27.13;;;;;;;-1.79;100.00;95350.34;1032334;28;20073;-73
2021/01/06 02:26:11;;;;;;;82.03;27.83;;;;;;;-1.72;100.00;95350.72;1032126;28;20121;-72
2021/01/06 02:26:42;;;;;;;92.30;28.42;;;;;;;-1.67;100.00;95360.75;1040592;28;20260;-71
2021/01/06 02:27:13;;;;;;;92.97;29.30;;;;;;;-1.65;100.00;95356.28;1040883;28;20029;-72
2021/01/06 02:27:44;;;;;;;79.00;27.73;;;;;;;-1.59;100.00;95358.41;1036838;28;20018;-72
2021/01/06 02:28:14;;;;;;;80.43;28.85;;;;;;;-1.52;100.00;95355.22;1028222;28;20023;-72
2021/01/06 02:28:46;;;;;;;77.07;26.33;;;;;;;-1.52;100.00;95354.38;1036295;28;20025;-71
2021/01/06 02:29:17;;;;;;;88.35;27.98;;;;;;;-1.52;100.00;95357.00;1044514;28;20072;-72